sensor_id;sensor_type;location;lat;lon;timestamp;pressure;altitude;pressure_sealevel;temperature;humidity
80102;BME280;69407;44.966;19.622;2023-05-07T00:00:36;100780.38;;;13.37;64.98
80102;BME280;69407;44.966;19.622;2023-05-07T00:03:02;100779.25;;;13.57;64.46
80102;BME280;69407;44.966;19.622;2023-05-07T00:05:27;100784.75;;;13.54;64.49
80102;BME280;69407;44.966;19.622;2023-05-07T00:07:53;100782.19;;;13.52;64.23
80102;BME280;69407;44.966;19.622;2023-05-07T00:10:19;100783.72;;;13.56;63.79
80102;BME280;69407;44.966;19.622;2023-05-07T00:12:44;100783.44;;;13.29;64.95
80102;BME280;69407;44.966;19.622;2023-05-07T00:15:10;100787.31;;;13.24;64.52
80102;BME280;69407;44.966;19.622;2023-05-07T00:17:36;100777.28;;;13.29;65.04
80102;BME280;69407;44.966;19.622;2023-05-07T00:20:03;100780.38;;;13.21;64.97
80102;BME280;69407;44.966;19.622;2023-05-07T00:22:30;100783.53;;;13.28;64.93
80102;BME280;69407;44.966;19.622;2023-05-07T00:24:56;100775.47;;;13.29;64.96
80102;BME280;69407;44.966;19.622;2023-05-07T00:27:22;100778.56;;;13.22;64.90
80102;BME280;69407;44.966;19.622;2023-05-07T00:29:48;100767.88;;;13.06;65.28
80102;BME280;69407;44.966;19.622;2023-05-07T00:32:13;100778.13;;;13.29;64.88
80102;BME280;69407;44.966;19.622;2023-05-07T00:34:39;100777.09;;;13.32;65.02
80102;BME280;69407;44.966;19.622;2023-05-07T00:37:05;100776.09;;;13.50;64.67
80102;BME280;69407;44.966;19.622;2023-05-07T00:39:33;100773.47;;;13.17;65.08
80102;BME280;69407;44.966;19.622;2023-05-07T00:41:59;100776.53;;;13.09;65.69
80102;BME280;69407;44.966;19.622;2023-05-07T00:44:26;100768.06;;;13.36;64.83
80102;BME280;69407;44.966;19.622;2023-05-07T00:46:52;100773.69;;;13.30;64.78
80102;BME280;69407;44.966;19.622;2023-05-07T00:49:19;100774.03;;;13.24;64.67
80102;BME280;69407;44.966;19.622;2023-05-07T00:51:45;100772.41;;;13.21;65.01
80102;BME280;69407;44.966;19.622;2023-05-07T00:54:12;100771.28;;;13.41;64.93
80102;BME280;69407;44.966;19.622;2023-05-07T00:56:38;100769.22;;;13.30;64.41
80102;BME280;69407;44.966;19.622;2023-05-07T00:59:05;100772.69;;;13.48;64.46
80102;BME280;69407;44.966;19.622;2023-05-07T01:01:31;100784.66;;;13.24;64.84
80102;BME280;69407;44.966;19.622;2023-05-07T01:03:57;100781.06;;;13.25;65.09
80102;BME280;69407;44.966;19.622;2023-05-07T01:06:23;100782.16;;;13.03;65.63
80102;BME280;69407;44.966;19.622;2023-05-07T01:08:50;100779.66;;;12.67;66.93
80102;BME280;69407;44.966;19.622;2023-05-07T01:11:18;100782.38;;;12.66;67.36
80102;BME280;69407;44.966;19.622;2023-05-07T01:13:46;100778.91;;;12.48;68.34
80102;BME280;69407;44.966;19.622;2023-05-07T01:16:11;100776.31;;;12.46;68.15
80102;BME280;69407;44.966;19.622;2023-05-07T01:18:37;100778.06;;;12.80;67.16
80102;BME280;69407;44.966;19.622;2023-05-07T01:21:04;100778.19;;;12.95;66.50
80102;BME280;69407;44.966;19.622;2023-05-07T01:23:30;100780.28;;;13.05;66.34
80102;BME280;69407;44.966;19.622;2023-05-07T01:25:56;100777.72;;;13.21;65.79
80102;BME280;69407;44.966;19.622;2023-05-07T01:28:21;100785.75;;;13.02;65.99
80102;BME280;69407;44.966;19.622;2023-05-07T01:30:51;100780.25;;;12.89;66.61
80102;BME280;69407;44.966;19.622;2023-05-07T01:33:20;100784.88;;;12.86;66.41
80102;BME280;69407;44.966;19.622;2023-05-07T01:35:49;100791.53;;;13.10;66.09
80102;BME280;69407;44.966;19.622;2023-05-07T01:38:16;100789.06;;;12.90;66.47
80102;BME280;69407;44.966;19.622;2023-05-07T01:40:41;100796.13;;;13.07;66.17
80102;BME280;69407;44.966;19.622;2023-05-07T01:43:08;100795.44;;;13.03;66.26
80102;BME280;69407;44.966;19.622;2023-05-07T01:45:34;100802.50;;;12.87;66.64
80102;BME280;69407;44.966;19.622;2023-05-07T01:48:01;100798.72;;;12.91;66.66
80102;BME280;69407;44.966;19.622;2023-05-07T01:50:27;100801.09;;;12.63;67.55
80102;BME280;69407;44.966;19.622;2023-05-07T01:52:53;100798.91;;;12.53;67.38
80102;BME280;69407;44.966;19.622;2023-05-07T01:55:19;100799.16;;;12.31;68.66
80102;BME280;69407;44.966;19.622;2023-05-07T01:57:45;100801.88;;;12.13;69.49
80102;BME280;69407;44.966;19.622;2023-05-07T02:00:11;100795.31;;;12.20;69.14
80102;BME280;69407;44.966;19.622;2023-05-07T02:02:36;100797.88;;;12.21;69.41
80102;BME280;69407;44.966;19.622;2023-05-07T02:05:03;100799.31;;;12.28;69.31
80102;BME280;69407;44.966;19.622;2023-05-07T02:07:29;100792.50;;;12.23;69.48
80102;BME280;69407;44.966;19.622;2023-05-07T02:09:54;100808.63;;;12.18;69.48
80102;BME280;69407;44.966;19.622;2023-05-07T02:12:23;100795.31;;;12.20;69.91
80102;BME280;69407;44.966;19.622;2023-05-07T02:14:49;100790.88;;;12.20;69.49
80102;BME280;69407;44.966;19.622;2023-05-07T02:17:15;100791.03;;;12.17;69.47
80102;BME280;69407;44.966;19.622;2023-05-07T02:19:40;100784.44;;;12.26;69.63
80102;BME280;69407;44.966;19.622;2023-05-07T02:22:07;100785.19;;;12.28;69.17
80102;BME280;69407;44.966;19.622;2023-05-07T02:24:32;100777.00;;;12.15;69.92
80102;BME280;69407;44.966;19.622;2023-05-07T02:26:58;100776.41;;;12.27;69.50
80102;BME280;69407;44.966;19.622;2023-05-07T02:29:23;100774.34;;;12.15;69.74
80102;BME280;69407;44.966;19.622;2023-05-07T02:31:48;100769.38;;;12.26;69.24
80102;BME280;69407;44.966;19.622;2023-05-07T02:34:18;100763.84;;;12.14;70.12
80102;BME280;69407;44.966;19.622;2023-05-07T02:36:44;100757.81;;;12.10;69.68
80102;BME280;69407;44.966;19.622;2023-05-07T02:39:11;100770.19;;;11.92;70.75
80102;BME280;69407;44.966;19.622;2023-05-07T02:41:37;100767.03;;;12.03;70.74
80102;BME280;69407;44.966;19.622;2023-05-07T02:44:03;100775.00;;;11.84;70.73
80102;BME280;69407;44.966;19.622;2023-05-07T02:46:28;100763.19;;;11.91;71.24
80102;BME280;69407;44.966;19.622;2023-05-07T02:48:53;100778.94;;;11.76;71.38
80102;BME280;69407;44.966;19.622;2023-05-07T02:51:21;100778.63;;;11.63;71.93
80102;BME280;69407;44.966;19.622;2023-05-07T02:53:46;100781.00;;;11.50;72.75
80102;BME280;69407;44.966;19.622;2023-05-07T02:56:12;100776.63;;;11.68;71.73
80102;BME280;69407;44.966;19.622;2023-05-07T02:58:37;100778.28;;;11.70;71.71
80102;BME280;69407;44.966;19.622;2023-05-07T03:01:08;100776.41;;;11.72;71.85
80102;BME280;69407;44.966;19.622;2023-05-07T03:03:34;100774.31;;;11.98;71.10
80102;BME280;69407;44.966;19.622;2023-05-07T03:05:59;100787.34;;;12.02;70.01
80102;BME280;69407;44.966;19.622;2023-05-07T03:08:25;100779.59;;;11.98;70.27
80102;BME280;69407;44.966;19.622;2023-05-07T03:10:51;100786.09;;;11.55;72.17
80102;BME280;69407;44.966;19.622;2023-05-07T03:13:17;100795.03;;;11.52;72.29
80102;BME280;69407;44.966;19.622;2023-05-07T03:15:42;100798.25;;;11.59;72.06
80102;BME280;69407;44.966;19.622;2023-05-07T03:18:08;100790.88;;;11.65;71.42
80102;BME280;69407;44.966;19.622;2023-05-07T03:20:33;100784.06;;;11.79;70.81
80102;BME280;69407;44.966;19.622;2023-05-07T03:22:59;100786.38;;;11.86;70.81
80102;BME280;69407;44.966;19.622;2023-05-07T03:25:25;100787.22;;;11.87;70.90
80102;BME280;69407;44.966;19.622;2023-05-07T03:27:50;100787.28;;;11.85;70.67
80102;BME280;69407;44.966;19.622;2023-05-07T03:30:16;100795.75;;;11.93;70.23
80102;BME280;69407;44.966;19.622;2023-05-07T03:32:41;100794.88;;;11.93;70.79
80102;BME280;69407;44.966;19.622;2023-05-07T03:35:07;100797.72;;;12.07;70.26
80102;BME280;69407;44.966;19.622;2023-05-07T03:37:33;100794.88;;;11.93;70.82
80102;BME280;69407;44.966;19.622;2023-05-07T03:39:58;100795.66;;;11.76;71.47
80102;BME280;69407;44.966;19.622;2023-05-07T03:42:24;100796.88;;;11.69;71.82
80102;BME280;69407;44.966;19.622;2023-05-07T03:44:49;100790.69;;;11.89;71.18
80102;BME280;69407;44.966;19.622;2023-05-07T03:47:15;100803.41;;;11.81;71.24
80102;BME280;69407;44.966;19.622;2023-05-07T03:49:40;100805.22;;;11.80;70.93
80102;BME280;69407;44.966;19.622;2023-05-07T03:52:06;100807.78;;;11.82;71.36
80102;BME280;69407;44.966;19.622;2023-05-07T03:54:31;100816.97;;;11.73;71.71
80102;BME280;69407;44.966;19.622;2023-05-07T03:56:57;100803.91;;;11.89;70.92
80102;BME280;69407;44.966;19.622;2023-05-07T03:59:22;100805.88;;;12.02;70.29
80102;BME280;69407;44.966;19.622;2023-05-07T04:01:48;100807.69;;;12.19;69.68
80102;BME280;69407;44.966;19.622;2023-05-07T04:04:14;100808.28;;;12.26;69.03
80102;BME280;69407;44.966;19.622;2023-05-07T04:06:40;100814.09;;;12.32;69.22
80102;BME280;69407;44.966;19.622;2023-05-07T04:09:05;100815.69;;;12.37;69.30
80102;BME280;69407;44.966;19.622;2023-05-07T04:11:31;100813.97;;;12.53;68.18
80102;BME280;69407;44.966;19.622;2023-05-07T04:13:57;100816.84;;;12.66;68.15
80102;BME280;69407;44.966;19.622;2023-05-07T04:16:23;100814.44;;;12.61;68.42
80102;BME280;69407;44.966;19.622;2023-05-07T04:18:48;100817.31;;;12.74;67.66
80102;BME280;69407;44.966;19.622;2023-05-07T04:21:17;100827.31;;;12.86;67.59
80102;BME280;69407;44.966;19.622;2023-05-07T04:23:43;100831.13;;;12.98;67.28
80102;BME280;69407;44.966;19.622;2023-05-07T04:26:08;100833.28;;;12.89;67.66
80102;BME280;69407;44.966;19.622;2023-05-07T04:28:34;100834.91;;;13.09;68.17
80102;BME280;69407;44.966;19.622;2023-05-07T04:31:00;100832.97;;;12.96;67.99
80102;BME280;69407;44.966;19.622;2023-05-07T04:33:26;100832.91;;;12.97;68.02
80102;BME280;69407;44.966;19.622;2023-05-07T04:35:51;100832.50;;;13.05;68.19
80102;BME280;69407;44.966;19.622;2023-05-07T04:38:17;100832.09;;;13.12;67.62
80102;BME280;69407;44.966;19.622;2023-05-07T04:40:43;100839.44;;;13.25;67.06
80102;BME280;69407;44.966;19.622;2023-05-07T04:43:09;100844.25;;;13.34;67.26
80102;BME280;69407;44.966;19.622;2023-05-07T04:45:35;100846.19;;;13.30;67.62
80102;BME280;69407;44.966;19.622;2023-05-07T04:48:01;100847.88;;;13.48;66.07
80102;BME280;69407;44.966;19.622;2023-05-07T04:50:26;100851.97;;;13.38;66.93
80102;BME280;69407;44.966;19.622;2023-05-07T04:52:52;100853.38;;;13.45;66.36
80102;BME280;69407;44.966;19.622;2023-05-07T04:55:17;100855.66;;;13.52;66.62
80102;BME280;69407;44.966;19.622;2023-05-07T04:57:43;100862.78;;;13.67;66.23
80102;BME280;69407;44.966;19.622;2023-05-07T05:00:09;100858.28;;;13.69;66.12
80102;BME280;69407;44.966;19.622;2023-05-07T05:02:35;100858.53;;;13.80;67.28
80102;BME280;69407;44.966;19.622;2023-05-07T05:05:01;100859.22;;;13.84;66.15
80102;BME280;69407;44.966;19.622;2023-05-07T05:07:29;100865.22;;;14.03;65.91
80102;BME280;69407;44.966;19.622;2023-05-07T05:09:55;100855.28;;;14.06;65.70
80102;BME280;69407;44.966;19.622;2023-05-07T05:12:20;100861.94;;;14.14;65.67
80102;BME280;69407;44.966;19.622;2023-05-07T05:14:46;100863.44;;;14.19;66.83
80102;BME280;69407;44.966;19.622;2023-05-07T05:17:12;100850.97;;;14.35;66.58
80102;BME280;69407;44.966;19.622;2023-05-07T05:19:37;100847.88;;;14.43;66.02
80102;BME280;69407;44.966;19.622;2023-05-07T05:22:03;100846.84;;;14.46;66.04
80102;BME280;69407;44.966;19.622;2023-05-07T05:24:30;100841.88;;;14.55;66.70
80102;BME280;69407;44.966;19.622;2023-05-07T05:26:56;100835.13;;;14.64;65.28
80102;BME280;69407;44.966;19.622;2023-05-07T05:29:21;100845.22;;;14.73;63.66
80102;BME280;69407;44.966;19.622;2023-05-07T05:31:47;100845.94;;;14.91;64.49
80102;BME280;69407;44.966;19.622;2023-05-07T05:34:12;100858.03;;;15.11;62.68
80102;BME280;69407;44.966;19.622;2023-05-07T05:36:38;100858.22;;;14.93;61.67
80102;BME280;69407;44.966;19.622;2023-05-07T05:39:03;100864.50;;;15.07;61.75
80102;BME280;69407;44.966;19.622;2023-05-07T05:41:29;100870.03;;;15.32;60.87
80102;BME280;69407;44.966;19.622;2023-05-07T05:43:55;100868.63;;;15.41;61.59
80102;BME280;69407;44.966;19.622;2023-05-07T05:46:21;100866.63;;;15.44;62.88
80102;BME280;69407;44.966;19.622;2023-05-07T05:48:46;100868.53;;;15.42;61.37
80102;BME280;69407;44.966;19.622;2023-05-07T05:51:12;100861.22;;;15.60;60.18
80102;BME280;69407;44.966;19.622;2023-05-07T05:53:37;100865.66;;;15.74;59.99
80102;BME280;69407;44.966;19.622;2023-05-07T05:56:03;100861.97;;;15.76;58.81
80102;BME280;69407;44.966;19.622;2023-05-07T05:58:29;100863.28;;;15.83;59.25
80102;BME280;69407;44.966;19.622;2023-05-07T06:00:54;100856.16;;;16.25;58.84
80102;BME280;69407;44.966;19.622;2023-05-07T06:03:20;100869.59;;;16.09;58.28
80102;BME280;69407;44.966;19.622;2023-05-07T06:05:45;100857.13;;;16.10;58.17
80102;BME280;69407;44.966;19.622;2023-05-07T06:08:11;100861.91;;;16.32;57.04
80102;BME280;69407;44.966;19.622;2023-05-07T06:10:37;100855.38;;;16.23;56.96
80102;BME280;69407;44.966;19.622;2023-05-07T06:13:02;100863.03;;;16.42;55.50
80102;BME280;69407;44.966;19.622;2023-05-07T06:15:28;100862.59;;;16.35;55.41
80102;BME280;69407;44.966;19.622;2023-05-07T06:17:53;100865.22;;;16.62;56.62
80102;BME280;69407;44.966;19.622;2023-05-07T06:20:21;100855.81;;;16.96;55.24
80102;BME280;69407;44.966;19.622;2023-05-07T06:22:46;100860.97;;;16.60;55.22
80102;BME280;69407;44.966;19.622;2023-05-07T06:25:11;100859.00;;;16.89;56.04
80102;BME280;69407;44.966;19.622;2023-05-07T06:27:37;100858.28;;;17.38;54.86
80102;BME280;69407;44.966;19.622;2023-05-07T06:30:05;100856.88;;;17.32;56.26
80102;BME280;69407;44.966;19.622;2023-05-07T06:32:31;100863.84;;;17.47;53.88
80102;BME280;69407;44.966;19.622;2023-05-07T06:34:56;100862.16;;;17.96;52.73
80102;BME280;69407;44.966;19.622;2023-05-07T06:37:22;100867.13;;;17.76;52.05
80102;BME280;69407;44.966;19.622;2023-05-07T06:39:47;100865.19;;;17.53;53.81
80102;BME280;69407;44.966;19.622;2023-05-07T06:42:12;100867.97;;;17.64;50.94
80102;BME280;69407;44.966;19.622;2023-05-07T06:44:38;100866.00;;;17.92;51.96
80102;BME280;69407;44.966;19.622;2023-05-07T06:47:03;100867.06;;;18.02;55.02
80102;BME280;69407;44.966;19.622;2023-05-07T06:49:30;100865.66;;;18.09;51.16
80102;BME280;69407;44.966;19.622;2023-05-07T06:51:56;100866.06;;;18.39;50.44
80102;BME280;69407;44.966;19.622;2023-05-07T06:54:22;100864.22;;;18.40;49.97
80102;BME280;69407;44.966;19.622;2023-05-07T06:56:48;100855.56;;;18.60;51.04
80102;BME280;69407;44.966;19.622;2023-05-07T06:59:13;100858.13;;;18.62;48.54
80102;BME280;69407;44.966;19.622;2023-05-07T07:01:39;100863.72;;;18.35;49.43
80102;BME280;69407;44.966;19.622;2023-05-07T07:04:04;100862.59;;;17.90;50.03
80102;BME280;69407;44.966;19.622;2023-05-07T07:06:30;100856.50;;;18.24;50.01
80102;BME280;69407;44.966;19.622;2023-05-07T07:08:57;100852.72;;;18.74;46.79
80102;BME280;69407;44.966;19.622;2023-05-07T07:11:23;100857.16;;;18.39;47.53
80102;BME280;69407;44.966;19.622;2023-05-07T07:13:48;100859.16;;;18.48;47.78
80102;BME280;69407;44.966;19.622;2023-05-07T07:16:14;100850.41;;;18.70;46.88
80102;BME280;69407;44.966;19.622;2023-05-07T07:18:39;100865.59;;;18.45;46.71
80102;BME280;69407;44.966;19.622;2023-05-07T07:21:05;100863.03;;;18.92;46.32
80102;BME280;69407;44.966;19.622;2023-05-07T07:23:30;100862.72;;;19.41;46.85
80102;BME280;69407;44.966;19.622;2023-05-07T07:25:56;100863.19;;;19.24;47.33
80102;BME280;69407;44.966;19.622;2023-05-07T07:28:22;100858.28;;;19.07;48.49
80102;BME280;69407;44.966;19.622;2023-05-07T07:30:47;100858.69;;;19.47;47.49
80102;BME280;69407;44.966;19.622;2023-05-07T07:33:13;100868.06;;;20.08;46.26
80102;BME280;69407;44.966;19.622;2023-05-07T07:35:38;100865.72;;;20.26;45.74
80102;BME280;69407;44.966;19.622;2023-05-07T07:38:04;100862.94;;;20.60;44.89
80102;BME280;69407;44.966;19.622;2023-05-07T07:40:29;100865.78;;;19.93;45.64
80102;BME280;69407;44.966;19.622;2023-05-07T07:42:56;100873.25;;;20.75;44.48
80102;BME280;69407;44.966;19.622;2023-05-07T07:45:22;100865.63;;;21.43;41.65
80102;BME280;69407;44.966;19.622;2023-05-07T07:47:47;100864.25;;;25.59;33.57
80102;BME280;69407;44.966;19.622;2023-05-07T07:50:13;100872.75;;;26.56;31.30
80102;BME280;69407;44.966;19.622;2023-05-07T07:52:39;100870.28;;;27.59;29.07
80102;BME280;69407;44.966;19.622;2023-05-07T07:55:05;100877.75;;;30.16;26.95
80102;BME280;69407;44.966;19.622;2023-05-07T07:57:30;100883.16;;;29.94;27.10
80102;BME280;69407;44.966;19.622;2023-05-07T07:59:56;100882.75;;;33.04;21.72
80102;BME280;69407;44.966;19.622;2023-05-07T08:02:21;100877.03;;;33.51;20.52
80102;BME280;69407;44.966;19.622;2023-05-07T08:04:47;100878.75;;;33.13;21.16
80102;BME280;69407;44.966;19.622;2023-05-07T08:07:15;100881.38;;;33.86;19.77
80102;BME280;69407;44.966;19.622;2023-05-07T08:09:43;100869.88;;;32.64;21.32
80102;BME280;69407;44.966;19.622;2023-05-07T08:12:09;100869.63;;;33.65;20.11
80102;BME280;69407;44.966;19.622;2023-05-07T08:14:34;100872.22;;;36.71;16.42
80102;BME280;69407;44.966;19.622;2023-05-07T08:17:01;100867.69;;;37.70;15.72
80102;BME280;69407;44.966;19.622;2023-05-07T08:19:27;100867.84;;;35.67;16.78
80102;BME280;69407;44.966;19.622;2023-05-07T08:21:52;100875.41;;;37.57;16.36
80102;BME280;69407;44.966;19.622;2023-05-07T08:24:18;100871.34;;;37.36;17.59
80102;BME280;69407;44.966;19.622;2023-05-07T08:26:44;100875.47;;;35.03;20.82
80102;BME280;69407;44.966;19.622;2023-05-07T08:29:10;100867.34;;;30.04;25.52
80102;BME280;69407;44.966;19.622;2023-05-07T08:31:35;100871.06;;;26.72;31.48
80102;BME280;69407;44.966;19.622;2023-05-07T08:34:01;100865.63;;;26.64;31.46
80102;BME280;69407;44.966;19.622;2023-05-07T08:36:26;100868.59;;;25.00;34.71
80102;BME280;69407;44.966;19.622;2023-05-07T08:38:53;100874.75;;;26.38;34.82
80102;BME280;69407;44.966;19.622;2023-05-07T08:41:20;100865.56;;;25.21;34.26
80102;BME280;69407;44.966;19.622;2023-05-07T08:43:49;100871.13;;;23.38;37.64
80102;BME280;69407;44.966;19.622;2023-05-07T08:46:20;100868.41;;;25.19;36.16
80102;BME280;69407;44.966;19.622;2023-05-07T08:48:49;100869.25;;;23.85;37.87
80102;BME280;69407;44.966;19.622;2023-05-07T08:51:19;100867.84;;;24.09;36.74
80102;BME280;69407;44.966;19.622;2023-05-07T08:53:47;100866.88;;;24.27;35.99
80102;BME280;69407;44.966;19.622;2023-05-07T08:56:14;100865.59;;;24.32;35.23
80102;BME280;69407;44.966;19.622;2023-05-07T08:58:43;100864.34;;;24.26;35.32
80102;BME280;69407;44.966;19.622;2023-05-07T09:01:12;100862.91;;;24.85;34.61
80102;BME280;69407;44.966;19.622;2023-05-07T09:03:38;100859.88;;;24.35;36.32
80102;BME280;69407;44.966;19.622;2023-05-07T09:06:04;100858.84;;;24.18;36.37
80102;BME280;69407;44.966;19.622;2023-05-07T09:08:32;100861.31;;;23.84;36.76
80102;BME280;69407;44.966;19.622;2023-05-07T09:10:58;100863.34;;;23.72;36.22
80102;BME280;69407;44.966;19.622;2023-05-07T09:13:23;100866.59;;;24.31;36.56
80102;BME280;69407;44.966;19.622;2023-05-07T09:15:49;100859.63;;;24.81;35.59
80102;BME280;69407;44.966;19.622;2023-05-07T09:18:14;100861.75;;;24.52;35.91
80102;BME280;69407;44.966;19.622;2023-05-07T09:20:41;100864.78;;;24.21;35.74
80102;BME280;69407;44.966;19.622;2023-05-07T09:23:08;100857.50;;;24.04;35.60
80102;BME280;69407;44.966;19.622;2023-05-07T09:25:35;100851.38;;;23.84;35.15
80102;BME280;69407;44.966;19.622;2023-05-07T09:28:01;100846.66;;;24.14;37.19
80102;BME280;69407;44.966;19.622;2023-05-07T09:30:29;100848.28;;;24.24;35.12
80102;BME280;69407;44.966;19.622;2023-05-07T09:32:56;100846.59;;;23.96;34.65
80102;BME280;69407;44.966;19.622;2023-05-07T09:35:21;100848.09;;;24.08;33.06
80102;BME280;69407;44.966;19.622;2023-05-07T09:37:49;100843.66;;;24.70;33.28
80102;BME280;69407;44.966;19.622;2023-05-07T09:40:28;100843.59;;;24.26;33.75
80102;BME280;69407;44.966;19.622;2023-05-07T09:42:54;100851.34;;;24.39;34.17
80102;BME280;69407;44.966;19.622;2023-05-07T09:45:26;100844.34;;;24.19;34.72
80102;BME280;69407;44.966;19.622;2023-05-07T09:47:56;100844.28;;;24.29;33.71
80102;BME280;69407;44.966;19.622;2023-05-07T09:50:48;100846.03;;;23.75;34.16
80102;BME280;69407;44.966;19.622;2023-05-07T09:53:14;100839.63;;;24.48;36.26
80102;BME280;69407;44.966;19.622;2023-05-07T09:55:40;100838.44;;;24.95;33.32
80102;BME280;69407;44.966;19.622;2023-05-07T09:58:06;100834.16;;;24.84;32.94
80102;BME280;69407;44.966;19.622;2023-05-07T10:00:32;100839.63;;;24.21;35.03
80102;BME280;69407;44.966;19.622;2023-05-07T10:02:58;100832.16;;;24.86;33.18
80102;BME280;69407;44.966;19.622;2023-05-07T10:05:26;100833.56;;;25.16;33.99
80102;BME280;69407;44.966;19.622;2023-05-07T10:07:52;100834.78;;;24.78;33.98
80102;BME280;69407;44.966;19.622;2023-05-07T10:10:19;100828.81;;;24.92;31.85
80102;BME280;69407;44.966;19.622;2023-05-07T10:12:45;100830.34;;;24.95;35.08
80102;BME280;69407;44.966;19.622;2023-05-07T10:15:11;100830.25;;;24.43;31.21
80102;BME280;69407;44.966;19.622;2023-05-07T10:17:38;100832.53;;;24.20;32.96
80102;BME280;69407;44.966;19.622;2023-05-07T10:20:05;100825.28;;;25.18;31.01
80102;BME280;69407;44.966;19.622;2023-05-07T10:22:40;100824.91;;;24.87;33.10
80102;BME280;69407;44.966;19.622;2023-05-07T10:25:25;100826.09;;;24.92;33.61
80102;BME280;69407;44.966;19.622;2023-05-07T10:27:53;100825.31;;;25.52;33.10
80102;BME280;69407;44.966;19.622;2023-05-07T10:32:53;100817.50;;;25.15;32.99
80102;BME280;69407;44.966;19.622;2023-05-07T10:35:24;100814.16;;;24.77;31.80
80102;BME280;69407;44.966;19.622;2023-05-07T10:37:50;100816.28;;;24.91;32.18
80102;BME280;69407;44.966;19.622;2023-05-07T10:40:16;100818.50;;;24.70;32.65
80102;BME280;69407;44.966;19.622;2023-05-07T10:42:59;100810.63;;;24.76;32.28
80102;BME280;69407;44.966;19.622;2023-05-07T10:45:26;100813.59;;;24.91;32.11
80102;BME280;69407;44.966;19.622;2023-05-07T10:50:37;100816.31;;;25.17;32.39
80102;BME280;69407;44.966;19.622;2023-05-07T10:58:28;100803.59;;;25.35;32.25
80102;BME280;69407;44.966;19.622;2023-05-07T11:00:58;100807.72;;;25.56;32.97
80102;BME280;69407;44.966;19.622;2023-05-07T11:03:28;100801.78;;;25.86;31.56
80102;BME280;69407;44.966;19.622;2023-05-07T11:11:16;100802.84;;;26.02;33.47
80102;BME280;69407;44.966;19.622;2023-05-07T11:13:45;100803.25;;;25.38;31.15
80102;BME280;69407;44.966;19.622;2023-05-07T11:16:22;100812.63;;;25.86;31.70
80102;BME280;69407;44.966;19.622;2023-05-07T11:18:48;100797.94;;;25.21;30.86
80102;BME280;69407;44.966;19.622;2023-05-07T11:24:02;100795.81;;;26.49;29.85
80102;BME280;69407;44.966;19.622;2023-05-07T11:26:30;100791.53;;;26.06;31.13
80102;BME280;69407;44.966;19.622;2023-05-07T11:28:56;100795.31;;;25.79;30.86
80102;BME280;69407;44.966;19.622;2023-05-07T11:31:24;100792.38;;;26.23;30.63
80102;BME280;69407;44.966;19.622;2023-05-07T11:33:54;100790.47;;;25.49;31.77
80102;BME280;69407;44.966;19.622;2023-05-07T11:36:22;100794.31;;;25.80;33.04
80102;BME280;69407;44.966;19.622;2023-05-07T11:38:48;100787.34;;;26.36;33.05
80102;BME280;69407;44.966;19.622;2023-05-07T11:41:16;100796.28;;;26.20;30.39
80102;BME280;69407;44.966;19.622;2023-05-07T11:43:58;100792.66;;;25.87;30.98
80102;BME280;69407;44.966;19.622;2023-05-07T11:46:24;100794.75;;;26.26;31.38
80102;BME280;69407;44.966;19.622;2023-05-07T11:48:50;100793.66;;;25.86;30.16
80102;BME280;69407;44.966;19.622;2023-05-07T11:51:21;100788.06;;;25.72;33.02
80102;BME280;69407;44.966;19.622;2023-05-07T11:53:46;100785.25;;;26.06;30.97
80102;BME280;69407;44.966;19.622;2023-05-07T11:56:14;100787.50;;;26.35;33.26
80102;BME280;69407;44.966;19.622;2023-05-07T11:58:40;100792.38;;;26.07;30.55
80102;BME280;69407;44.966;19.622;2023-05-07T12:01:10;100791.47;;;25.90;31.23
80102;BME280;69407;44.966;19.622;2023-05-07T12:03:36;100789.50;;;25.58;31.36
80102;BME280;69407;44.966;19.622;2023-05-07T12:06:05;100788.13;;;26.04;32.22
80102;BME280;69407;44.966;19.622;2023-05-07T12:08:30;100789.97;;;26.04;30.27
80102;BME280;69407;44.966;19.622;2023-05-07T12:10:56;100786.69;;;26.42;30.57
80102;BME280;69407;44.966;19.622;2023-05-07T12:13:23;100788.25;;;25.86;31.25
80102;BME280;69407;44.966;19.622;2023-05-07T12:15:53;100786.63;;;26.18;31.17
80102;BME280;69407;44.966;19.622;2023-05-07T12:18:19;100781.91;;;26.85;29.78
80102;BME280;69407;44.966;19.622;2023-05-07T12:20:45;100781.41;;;26.90;30.43
80102;BME280;69407;44.966;19.622;2023-05-07T12:23:11;100772.88;;;27.01;30.39
80102;BME280;69407;44.966;19.622;2023-05-07T12:25:38;100777.19;;;26.71;30.01
80102;BME280;69407;44.966;19.622;2023-05-07T12:28:05;100774.47;;;27.03;28.69
80102;BME280;69407;44.966;19.622;2023-05-07T12:30:38;100768.47;;;27.00;28.78
80102;BME280;69407;44.966;19.622;2023-05-07T12:33:04;100776.22;;;27.35;28.51
80102;BME280;69407;44.966;19.622;2023-05-07T12:35:30;100764.22;;;27.22;30.60
80102;BME280;69407;44.966;19.622;2023-05-07T12:37:58;100763.66;;;27.34;28.48
80102;BME280;69407;44.966;19.622;2023-05-07T12:43:26;100747.31;;;26.95;29.33
80102;BME280;69407;44.966;19.622;2023-05-07T12:46:01;100743.34;;;27.61;30.36
80102;BME280;69407;44.966;19.622;2023-05-07T12:48:27;100743.81;;;27.34;29.17
80102;BME280;69407;44.966;19.622;2023-05-07T12:51:00;100740.94;;;27.35;28.18
80102;BME280;69407;44.966;19.622;2023-05-07T12:53:27;100744.28;;;27.45;29.47
80102;BME280;69407;44.966;19.622;2023-05-07T12:55:55;100741.13;;;27.26;30.93
80102;BME280;69407;44.966;19.622;2023-05-07T12:58:27;100732.00;;;27.27;31.21